Wednesday, May 23, 2018, 9:08 AM EDT
Back to Local

KACK, Nantucket Memorial Airport

Location: Nantucket, MA, United States Lat: 41.25
Local Time: 9:08 AM EDT (13:08 GMT) Lon: -70.067
Time Zone: US/Eastern Elev: 49 ft

Show me the last for .
Show Decoded

2018-05-23 08:53 METAR KACK 231253Z 26007KT 5SM BR OVC002 13/13 A2988 RMK AO2 SLP119 T01330133 $
                 =
2018-05-23 07:53 METAR KACK 231153Z 23007KT 6SM BR BKN002 BKN095 13/13 A2989 RMK AO2 RAE35 SLP120
                 P0004 60011 70024 T01280128 10133 20111 58003 $ =
2018-05-23 07:27 METAR KACK 231127Z 00000KT 9SM -RA FEW006 SCT070 OVC100 13/13 A2987 RMK AO2
                 P0003 T01280128 $ =
2018-05-23 07:17 METAR KACK 231117Z 00000KT 8SM -RA BKN003 BKN035 OVC070 13/13 A2987 RMK AO2 LTG
                 DSNT E P0003 T01280128 $ =
2018-05-23 07:00 METAR KACK 231100Z 08003KT 4SM VCTS -RA BR BKN003 BKN030 OVC070 12/12 A2987 RMK
                 AO2 PRESFR P0001 T01220122 $ =
2018-05-23 06:53 METAR KACK 231053Z 21004KT 3SM RA BR OVC003 13/13 A2990 RMK AO2 RAB37 SLP125
                 P0007 T01280128 $ =
2018-05-23 06:48 METAR KACK 231048Z 23006KT 1 1/2SM +RA BR OVC003 13/13 A2991 RMK AO2 RAB37 P0006
                 $ =
2018-05-23 06:27 METAR KACK 231027Z 28004KT 4SM BR OVC003 12/12 A2990 RMK AO2 T01220122 $ =
2018-05-23 06:19 METAR KACK 231019Z 26005KT 2SM R24/6000VP6000FT BR BKN003 OVC011 12/12 A2990 RMK
                 AO2 T01220122 $ =
2018-05-23 06:10 METAR KACK 231010Z 27004KT 1/2SM R24/3000V6000FT FG VV004 12/12 A2990 RMK AO2
                 T01220122 $ =
2018-05-23 05:53 METAR KACK 230953Z 22004KT 1/4SM R24/2000V3500FT FG VV003 12/12 A2990 RMK AO2
                 SLP123 T01220122 $ =
2018-05-23 05:30 METAR KACK 230930Z AUTO 25003KT 1/4SM R24/1800V2000FT FG VV002 12/12 A2990 RMK
                 AO2 T01220122 $ =
2018-05-23 04:53 METAR KACK 230853Z AUTO 00000KT 1/2SM R24/2200V3000FT FG VV003 12/12 A2990 RMK
                 AO2 SLP123 T01170117 55004 $ =
2018-05-23 04:29 METAR KACK 230829Z AUTO 00000KT 1/2SM R24/2200V2600FT FG VV002 12/12 A2989 RMK
                 AO2 T01170117 $ =
2018-05-23 04:18 METAR KACK 230818Z AUTO 00000KT 1/2SM R24/2000V2200FT FG VV002 12/12 A2989 RMK
                 AO2 T01170117 $ =
2018-05-23 03:53 METAR KACK 230753Z AUTO 00000KT 1/2SM R24/2400V3000FT FG VV002 12/12 A2988 RMK
                 AO2 SLP119 T01170117 $ =
2018-05-23 03:28 METAR KACK 230728Z AUTO 08003KT 3/4SM R24/3500V4000FT BR VV002 11/11 A2987 RMK
                 AO2 T01110111 $ =
2018-05-23 03:03 METAR KACK 230703Z AUTO 03004KT 1 3/4SM R24/5000VP6000FT BR OVC002 12/12 A2990
                 RMK AO2 T01170117 $ =
2018-05-23 02:53 METAR KACK 230653Z AUTO 03005KT 3SM BR OVC003 12/12 A2990 RMK AO2 SLP124
                 T01170117 $ =
2018-05-23 02:46 METAR KACK 230646Z AUTO 02005KT 2 1/2SM BR OVC003 12/12 A2990 RMK AO2 T01170117
                 $ =
2018-05-23 02:23 METAR KACK 230623Z AUTO 02005KT 1 3/4SM BR OVC002 12/12 A2990 RMK AO2 T01170117
                 $ =
2018-05-23 01:53 METAR KACK 230553Z AUTO 01004KT 9SM OVC003 12/12 A2991 RMK AO2 RAE01 SLP128
                 P0000 60013 T01170117 10117 20111 $ =
2018-05-23 00:53 METAR KACK 230453Z AUTO 03004KT 9SM -RA OVC004 12/12 A2993 RMK AO2 RAB02 SLP136
                 P0003 T01170117 401780100 $ =
2018-05-23 00:37 METAR KACK 230437Z AUTO 01005KT 10SM -RA OVC004 12/12 A2994 RMK AO2 RAB02 P0002
                 T01170117 $ =
2018-05-23 00:22 METAR KACK 230422Z AUTO 01004KT 7SM -RA BKN005 OVC010 12/12 A2995 RMK AO2 RAB02
                 CIG 004V008 P0001 T01170117 $ =
2018-05-23 00:11 METAR KACK 230411Z AUTO 03004KT 10SM -RA SCT004 OVC010 12/12 A2996 RMK AO2 RAB02
                 P0000 T01170117 $ =
2018-05-22 23:53 METAR KACK 230353Z AUTO 07003KT 10SM 11/11 A2997 RMK AO2 SLP147 T01110111 $ =
2018-05-22 22:53 METAR KACK 230253Z AUTO 15004KT 10SM OVC014 11/11 A3000 RMK AO2 RAE43 SLP159
                 P0002 60010 T01110111 58012 =
2018-05-22 22:39 METAR KACK 230239Z AUTO 16003KT 10SM -RA BKN014 OVC028 11/11 A3001 RMK AO2 P0002
                 T01110111 =
2018-05-22 22:27 METAR KACK 230227Z AUTO 15003KT 9SM -RA SCT014 OVC028 11/11 A3001 RMK AO2 P0002
                 T01110106 =
2018-05-22 21:53 METAR KACK 230153Z AUTO 16008KT 9SM -RA BKN031 BKN046 OVC070 11/11 A3002 RMK AO2
                 SLP167 P0004 T01110111 =
2018-05-22 20:53 METAR KACK 230053Z 15008KT 7SM -RA BKN100 OVC120 12/12 A3003 RMK AO2 SLP167
                 P0004 T01170117 =
2018-05-22 19:53 METAR KACK 222353Z 13009KT 10SM -RA BKN090 OVC110 12/12 A3004 RMK AO2 RAB25
                 SLP171 P0000 60000 T01170117 10167 20117 58026 =
2018-05-22 18:53 METAR KACK 222253Z 13007KT 10SM OVC110 12/10 A3007 RMK AO2 RAB27E52 SLP183 P0000
                 T01170100 =
2018-05-22 17:53 METAR KACK 222153Z 16006KT 10SM OVC095 13/08 A3010 RMK AO2 SLP194 T01280078 =
2018-05-22 16:53 METAR KACK 222053Z 18005KT 10SM OVC110 14/08 A3012 RMK AO2 SLP198 T01390083
                 58015 =
2018-05-22 15:53 METAR KACK 221953Z 18006KT 10SM OVC110 14/08 A3014 RMK AO2 SLP205 T01390083 =
2018-05-22 14:53 METAR KACK 221853Z 19007KT 10SM SCT120 14/09 A3014 RMK AO2 SLP207 T01440089 =
2018-05-22 13:53 METAR KACK 221753Z 20007KT 10SM CLR 17/08 A3016 RMK AO2 SLP213 T01670078 10178
                 20133 58009 =
2018-05-22 12:53 METAR KACK 221653Z 20009KT 10SM CLR 17/08 A3017 RMK AO2 SLP217 T01670083 =
2018-05-22 11:53 METAR KACK 221553Z 22009KT 10SM CLR 16/10 A3018 RMK AO2 SLP221 T01560100 =
2018-05-22 10:53 METAR KACK 221453Z 22008KT 10SM CLR 15/11 A3019 RMK AO2 SLP222 T01500106 58001 =
2018-05-22 09:53 METAR KACK 221353Z 23009KT 10SM CLR 16/11 A3019 RMK AO2 SLP223 T01560106 =

Support USWX by starting your Amazon purchase here.